sensor_id;sensor_type;location;lat;lon;timestamp;temperature;humidity
39931;DHT22;26635;-35.248;149.138;2023-07-31T00:01:18;12.00;88.40
39931;DHT22;26635;-35.248;149.138;2023-07-31T00:03:48;12.00;88.30
39931;DHT22;26635;-35.248;149.138;2023-07-31T00:06:19;12.20;89.10
39931;DHT22;26635;-35.248;149.138;2023-07-31T00:08:49;12.20;87.50
39931;DHT22;26635;-35.248;149.138;2023-07-31T00:11:23;12.40;87.30
39931;DHT22;26635;-35.248;149.138;2023-07-31T00:13:54;12.50;87.10
39931;DHT22;26635;-35.248;149.138;2023-07-31T00:16:24;12.50;86.80
39931;DHT22;26635;-35.248;149.138;2023-07-31T00:18:55;12.50;86.70
39931;DHT22;26635;-35.248;149.138;2023-07-31T00:21:25;12.50;86.80
39931;DHT22;26635;-35.248;149.138;2023-07-31T00:23:56;12.60;86.70
39931;DHT22;26635;-35.248;149.138;2023-07-31T00:26:27;12.70;87.20
39931;DHT22;26635;-35.248;149.138;2023-07-31T00:28:57;12.80;86.60
39931;DHT22;26635;-35.248;149.138;2023-07-31T00:31:28;13.00;86.10
39931;DHT22;26635;-35.248;149.138;2023-07-31T00:33:59;13.10;84.80
39931;DHT22;26635;-35.248;149.138;2023-07-31T00:36:29;13.20;84.50
39931;DHT22;26635;-35.248;149.138;2023-07-31T00:39:00;13.30;84.70
39931;DHT22;26635;-35.248;149.138;2023-07-31T00:41:30;13.40;83.50
39931;DHT22;26635;-35.248;149.138;2023-07-31T00:44:01;13.50;83.40
39931;DHT22;26635;-35.248;149.138;2023-07-31T00:46:31;13.60;82.90
39931;DHT22;26635;-35.248;149.138;2023-07-31T00:49:02;13.60;82.90
39931;DHT22;26635;-35.248;149.138;2023-07-31T00:51:32;13.70;82.90
39931;DHT22;26635;-35.248;149.138;2023-07-31T00:54:03;13.80;83.20
39931;DHT22;26635;-35.248;149.138;2023-07-31T00:56:34;13.90;83.00
39931;DHT22;26635;-35.248;149.138;2023-07-31T00:59:05;14.00;83.00
39931;DHT22;26635;-35.248;149.138;2023-07-31T01:01:35;14.10;81.70
39931;DHT22;26635;-35.248;149.138;2023-07-31T01:04:05;14.10;80.60
39931;DHT22;26635;-35.248;149.138;2023-07-31T01:12:05;14.20;80.80
39931;DHT22;26635;-35.248;149.138;2023-07-31T01:14:36;14.10;78.90
39931;DHT22;26635;-35.248;149.138;2023-07-31T01:17:08;14.10;78.90
39931;DHT22;26635;-35.248;149.138;2023-07-31T01:19:39;14.10;79.30
39931;DHT22;26635;-35.248;149.138;2023-07-31T01:23:31;14.20;79.70
39931;DHT22;26635;-35.248;149.138;2023-07-31T01:30:15;14.40;79.10
39931;DHT22;26635;-35.248;149.138;2023-07-31T01:32:11;14.50;77.80
39931;DHT22;26635;-35.248;149.138;2023-07-31T01:34:42;14.50;77.40
39931;DHT22;26635;-35.248;149.138;2023-07-31T01:37:13;14.60;77.40
39931;DHT22;26635;-35.248;149.138;2023-07-31T01:39:44;14.70;77.80
39931;DHT22;26635;-35.248;149.138;2023-07-31T01:42:14;14.80;77.40
39931;DHT22;26635;-35.248;149.138;2023-07-31T01:44:45;14.90;77.00
39931;DHT22;26635;-35.248;149.138;2023-07-31T01:47:15;15.00;76.90
39931;DHT22;26635;-35.248;149.138;2023-07-31T01:49:46;15.00;76.60
39931;DHT22;26635;-35.248;149.138;2023-07-31T01:52:16;15.10;77.00
39931;DHT22;26635;-35.248;149.138;2023-07-31T01:54:46;15.00;75.80
39931;DHT22;26635;-35.248;149.138;2023-07-31T01:57:16;15.00;75.50
39931;DHT22;26635;-35.248;149.138;2023-07-31T01:59:47;14.90;76.20
39931;DHT22;26635;-35.248;149.138;2023-07-31T02:02:17;14.80;76.50
39931;DHT22;26635;-35.248;149.138;2023-07-31T02:04:47;14.70;76.90
39931;DHT22;26635;-35.248;149.138;2023-07-31T02:07:18;14.80;77.50
39931;DHT22;26635;-35.248;149.138;2023-07-31T02:09:48;14.80;77.30
39931;DHT22;26635;-35.248;149.138;2023-07-31T02:12:19;14.90;76.30
39931;DHT22;26635;-35.248;149.138;2023-07-31T02:14:49;14.80;76.20
39931;DHT22;26635;-35.248;149.138;2023-07-31T02:17:20;14.80;76.00
39931;DHT22;26635;-35.248;149.138;2023-07-31T02:19:50;14.80;75.40
39931;DHT22;26635;-35.248;149.138;2023-07-31T02:22:21;14.80;75.60
39931;DHT22;26635;-35.248;149.138;2023-07-31T02:24:51;14.80;76.50
39931;DHT22;26635;-35.248;149.138;2023-07-31T02:27:21;14.90;75.20
39931;DHT22;26635;-35.248;149.138;2023-07-31T02:29:56;14.90;75.00
39931;DHT22;26635;-35.248;149.138;2023-07-31T02:32:29;15.00;74.50
39931;DHT22;26635;-35.248;149.138;2023-07-31T02:34:59;14.90;74.00
39931;DHT22;26635;-35.248;149.138;2023-07-31T02:37:29;14.90;74.10
39931;DHT22;26635;-35.248;149.138;2023-07-31T02:40:00;14.90;74.70
39931;DHT22;26635;-35.248;149.138;2023-07-31T02:42:30;14.90;74.60
39931;DHT22;26635;-35.248;149.138;2023-07-31T02:45:00;14.90;74.60
39931;DHT22;26635;-35.248;149.138;2023-07-31T02:47:31;14.90;74.30
39931;DHT22;26635;-35.248;149.138;2023-07-31T02:50:06;14.90;75.40
39931;DHT22;26635;-35.248;149.138;2023-07-31T02:52:36;15.00;75.20
39931;DHT22;26635;-35.248;149.138;2023-07-31T02:55:07;15.10;75.30
39931;DHT22;26635;-35.248;149.138;2023-07-31T02:57:38;15.10;74.50
39931;DHT22;26635;-35.248;149.138;2023-07-31T03:00:09;15.20;74.60
39931;DHT22;26635;-35.248;149.138;2023-07-31T03:02:40;15.20;74.30
39931;DHT22;26635;-35.248;149.138;2023-07-31T03:05:10;15.10;74.20
39931;DHT22;26635;-35.248;149.138;2023-07-31T03:07:41;15.10;73.90
39931;DHT22;26635;-35.248;149.138;2023-07-31T03:10:11;15.00;74.40
39931;DHT22;26635;-35.248;149.138;2023-07-31T03:12:42;15.00;74.60
39931;DHT22;26635;-35.248;149.138;2023-07-31T03:15:12;14.90;74.40
39931;DHT22;26635;-35.248;149.138;2023-07-31T03:17:43;14.90;74.00
39931;DHT22;26635;-35.248;149.138;2023-07-31T03:20:13;14.80;73.90
39931;DHT22;26635;-35.248;149.138;2023-07-31T03:22:46;14.80;74.70
39931;DHT22;26635;-35.248;149.138;2023-07-31T03:25:17;14.80;74.80
39931;DHT22;26635;-35.248;149.138;2023-07-31T03:27:47;14.80;75.10
39931;DHT22;26635;-35.248;149.138;2023-07-31T03:30:18;14.80;74.20
39931;DHT22;26635;-35.248;149.138;2023-07-31T03:32:48;14.80;74.90
39931;DHT22;26635;-35.248;149.138;2023-07-31T03:35:18;14.70;74.60
39931;DHT22;26635;-35.248;149.138;2023-07-31T03:37:49;14.70;75.10
39931;DHT22;26635;-35.248;149.138;2023-07-31T03:40:19;14.70;75.10
39931;DHT22;26635;-35.248;149.138;2023-07-31T03:42:50;14.70;74.70
39931;DHT22;26635;-35.248;149.138;2023-07-31T03:45:20;14.70;74.50
39931;DHT22;26635;-35.248;149.138;2023-07-31T03:47:51;14.70;74.80
39931;DHT22;26635;-35.248;149.138;2023-07-31T03:50:21;14.60;74.80
39931;DHT22;26635;-35.248;149.138;2023-07-31T03:52:52;14.60;74.70
39931;DHT22;26635;-35.248;149.138;2023-07-31T03:55:22;14.60;74.80
39931;DHT22;26635;-35.248;149.138;2023-07-31T03:57:53;14.60;75.10
39931;DHT22;26635;-35.248;149.138;2023-07-31T04:00:23;14.60;75.10
39931;DHT22;26635;-35.248;149.138;2023-07-31T04:02:53;14.50;75.40
39931;DHT22;26635;-35.248;149.138;2023-07-31T04:05:24;14.40;75.40
39931;DHT22;26635;-35.248;149.138;2023-07-31T04:07:54;14.40;75.70
39931;DHT22;26635;-35.248;149.138;2023-07-31T04:10:24;14.40;75.60
39931;DHT22;26635;-35.248;149.138;2023-07-31T04:12:55;14.30;75.80
39931;DHT22;26635;-35.248;149.138;2023-07-31T04:15:26;14.30;75.90
39931;DHT22;26635;-35.248;149.138;2023-07-31T04:17:56;14.30;75.80
39931;DHT22;26635;-35.248;149.138;2023-07-31T04:20:27;14.30;76.10
39931;DHT22;26635;-35.248;149.138;2023-07-31T04:22:58;14.30;75.30
39931;DHT22;26635;-35.248;149.138;2023-07-31T04:25:28;14.30;75.60
39931;DHT22;26635;-35.248;149.138;2023-07-31T04:27:59;14.20;75.90
39931;DHT22;26635;-35.248;149.138;2023-07-31T04:30:29;14.20;75.60
39931;DHT22;26635;-35.248;149.138;2023-07-31T04:32:59;14.20;75.10
39931;DHT22;26635;-35.248;149.138;2023-07-31T04:35:30;14.20;76.00
39931;DHT22;26635;-35.248;149.138;2023-07-31T04:38:00;14.10;75.10
39931;DHT22;26635;-35.248;149.138;2023-07-31T04:40:30;14.10;75.20
39931;DHT22;26635;-35.248;149.138;2023-07-31T04:43:01;14.10;76.00
39931;DHT22;26635;-35.248;149.138;2023-07-31T04:45:31;14.10;75.70
39931;DHT22;26635;-35.248;149.138;2023-07-31T04:48:01;14.10;76.10
39931;DHT22;26635;-35.248;149.138;2023-07-31T04:50:32;14.00;75.50
39931;DHT22;26635;-35.248;149.138;2023-07-31T04:53:03;14.00;75.40
39931;DHT22;26635;-35.248;149.138;2023-07-31T04:55:33;13.90;75.30
39931;DHT22;26635;-35.248;149.138;2023-07-31T04:58:03;13.80;75.80
39931;DHT22;26635;-35.248;149.138;2023-07-31T05:00:34;13.80;76.40
39931;DHT22;26635;-35.248;149.138;2023-07-31T05:03:09;13.80;76.60
39931;DHT22;26635;-35.248;149.138;2023-07-31T05:05:41;13.80;76.10
39931;DHT22;26635;-35.248;149.138;2023-07-31T05:08:13;13.80;76.60
39931;DHT22;26635;-35.248;149.138;2023-07-31T05:10:44;13.70;76.70
39931;DHT22;26635;-35.248;149.138;2023-07-31T05:13:15;13.70;76.80
39931;DHT22;26635;-35.248;149.138;2023-07-31T05:15:45;13.70;76.60
39931;DHT22;26635;-35.248;149.138;2023-07-31T05:18:16;13.70;77.20
39931;DHT22;26635;-35.248;149.138;2023-07-31T05:20:46;13.70;77.00
39931;DHT22;26635;-35.248;149.138;2023-07-31T05:23:16;13.70;76.40
39931;DHT22;26635;-35.248;149.138;2023-07-31T05:25:47;13.70;76.30
39931;DHT22;26635;-35.248;149.138;2023-07-31T05:28:17;13.60;76.40
39931;DHT22;26635;-35.248;149.138;2023-07-31T05:30:48;13.70;76.20
39931;DHT22;26635;-35.248;149.138;2023-07-31T05:33:18;13.70;76.40
39931;DHT22;26635;-35.248;149.138;2023-07-31T05:35:48;13.60;76.50
39931;DHT22;26635;-35.248;149.138;2023-07-31T05:38:25;13.60;75.70
39931;DHT22;26635;-35.248;149.138;2023-07-31T05:40:58;13.50;76.10
39931;DHT22;26635;-35.248;149.138;2023-07-31T05:43:28;13.50;75.80
39931;DHT22;26635;-35.248;149.138;2023-07-31T05:45:59;13.50;75.70
39931;DHT22;26635;-35.248;149.138;2023-07-31T05:48:33;13.50;75.80
39931;DHT22;26635;-35.248;149.138;2023-07-31T05:51:06;13.40;75.60
39931;DHT22;26635;-35.248;149.138;2023-07-31T05:53:37;13.20;75.80
39931;DHT22;26635;-35.248;149.138;2023-07-31T05:56:10;13.20;76.30
39931;DHT22;26635;-35.248;149.138;2023-07-31T05:58:40;13.20;76.00
39931;DHT22;26635;-35.248;149.138;2023-07-31T06:01:10;13.10;76.50
39931;DHT22;26635;-35.248;149.138;2023-07-31T06:03:41;13.10;76.80
39931;DHT22;26635;-35.248;149.138;2023-07-31T06:06:11;13.10;76.70
39931;DHT22;26635;-35.248;149.138;2023-07-31T06:08:43;13.00;76.70
39931;DHT22;26635;-35.248;149.138;2023-07-31T06:11:13;13.00;75.90
39931;DHT22;26635;-35.248;149.138;2023-07-31T06:13:44;13.00;76.60
39931;DHT22;26635;-35.248;149.138;2023-07-31T06:16:17;12.90;77.70
39931;DHT22;26635;-35.248;149.138;2023-07-31T06:18:48;12.90;76.90
39931;DHT22;26635;-35.248;149.138;2023-07-31T06:21:18;12.90;77.10
39931;DHT22;26635;-35.248;149.138;2023-07-31T06:23:48;12.90;77.10
39931;DHT22;26635;-35.248;149.138;2023-07-31T06:26:19;12.80;76.80
39931;DHT22;26635;-35.248;149.138;2023-07-31T06:28:49;12.70;76.90
39931;DHT22;26635;-35.248;149.138;2023-07-31T06:31:20;12.60;77.30
39931;DHT22;26635;-35.248;149.138;2023-07-31T06:33:53;12.40;77.70
39931;DHT22;26635;-35.248;149.138;2023-07-31T06:36:24;12.30;78.10
39931;DHT22;26635;-35.248;149.138;2023-07-31T06:38:54;12.30;77.90
39931;DHT22;26635;-35.248;149.138;2023-07-31T06:41:24;12.20;78.10
39931;DHT22;26635;-35.248;149.138;2023-07-31T06:43:55;12.10;78.10
39931;DHT22;26635;-35.248;149.138;2023-07-31T06:46:25;12.10;78.20
39931;DHT22;26635;-35.248;149.138;2023-07-31T06:48:55;12.00;78.50
39931;DHT22;26635;-35.248;149.138;2023-07-31T06:51:26;12.00;78.70
39931;DHT22;26635;-35.248;149.138;2023-07-31T06:53:56;11.90;79.20
39931;DHT22;26635;-35.248;149.138;2023-07-31T06:56:27;11.80;78.90
39931;DHT22;26635;-35.248;149.138;2023-07-31T06:58:58;11.80;79.30
39931;DHT22;26635;-35.248;149.138;2023-07-31T07:01:29;11.70;78.70
39931;DHT22;26635;-35.248;149.138;2023-07-31T07:04:00;11.70;79.00
39931;DHT22;26635;-35.248;149.138;2023-07-31T07:06:30;11.60;78.80
39931;DHT22;26635;-35.248;149.138;2023-07-31T07:09:00;11.50;78.50
39931;DHT22;26635;-35.248;149.138;2023-07-31T07:11:31;11.40;78.80
39931;DHT22;26635;-35.248;149.138;2023-07-31T07:14:02;11.30;78.70
39931;DHT22;26635;-35.248;149.138;2023-07-31T07:16:32;11.30;79.00
39931;DHT22;26635;-35.248;149.138;2023-07-31T07:19:03;11.20;79.40
39931;DHT22;26635;-35.248;149.138;2023-07-31T07:21:33;11.10;80.00
39931;DHT22;26635;-35.248;149.138;2023-07-31T07:24:03;11.10;79.70
39931;DHT22;26635;-35.248;149.138;2023-07-31T07:26:34;11.00;79.70
39931;DHT22;26635;-35.248;149.138;2023-07-31T07:29:05;10.90;80.00
39931;DHT22;26635;-35.248;149.138;2023-07-31T07:31:37;10.80;80.20
39931;DHT22;26635;-35.248;149.138;2023-07-31T07:34:08;10.80;80.30
39931;DHT22;26635;-35.248;149.138;2023-07-31T07:36:38;10.70;79.80
39931;DHT22;26635;-35.248;149.138;2023-07-31T07:39:10;10.60;80.50
39931;DHT22;26635;-35.248;149.138;2023-07-31T07:41:41;10.50;80.60
39931;DHT22;26635;-35.248;149.138;2023-07-31T07:44:12;10.40;81.20
39931;DHT22;26635;-35.248;149.138;2023-07-31T07:46:43;10.30;81.30
39931;DHT22;26635;-35.248;149.138;2023-07-31T07:49:13;10.30;81.20
39931;DHT22;26635;-35.248;149.138;2023-07-31T07:51:44;10.30;81.30
39931;DHT22;26635;-35.248;149.138;2023-07-31T07:54:14;10.20;81.50
39931;DHT22;26635;-35.248;149.138;2023-07-31T07:56:47;10.20;81.40
39931;DHT22;26635;-35.248;149.138;2023-07-31T07:59:17;10.20;81.80
39931;DHT22;26635;-35.248;149.138;2023-07-31T08:01:47;10.20;81.60
39931;DHT22;26635;-35.248;149.138;2023-07-31T08:04:18;10.10;82.60
39931;DHT22;26635;-35.248;149.138;2023-07-31T08:06:48;10.10;82.50
39931;DHT22;26635;-35.248;149.138;2023-07-31T08:09:19;10.00;82.60
39931;DHT22;26635;-35.248;149.138;2023-07-31T08:11:49;10.00;83.20
39931;DHT22;26635;-35.248;149.138;2023-07-31T08:14:20;10.00;82.80
39931;DHT22;26635;-35.248;149.138;2023-07-31T08:16:50;9.90;83.50
39931;DHT22;26635;-35.248;149.138;2023-07-31T08:19:21;9.80;84.00
39931;DHT22;26635;-35.248;149.138;2023-07-31T08:21:51;9.70;83.80
39931;DHT22;26635;-35.248;149.138;2023-07-31T08:24:25;9.60;83.70
39931;DHT22;26635;-35.248;149.138;2023-07-31T08:26:55;9.60;84.40
39931;DHT22;26635;-35.248;149.138;2023-07-31T08:29:27;9.50;84.30
39931;DHT22;26635;-35.248;149.138;2023-07-31T08:31:57;9.50;83.90
39931;DHT22;26635;-35.248;149.138;2023-07-31T08:34:28;9.40;84.40
39931;DHT22;26635;-35.248;149.138;2023-07-31T08:36:58;9.40;84.40
39931;DHT22;26635;-35.248;149.138;2023-07-31T08:39:29;9.40;85.10
39931;DHT22;26635;-35.248;149.138;2023-07-31T08:41:59;9.30;84.50
39931;DHT22;26635;-35.248;149.138;2023-07-31T08:44:31;9.30;85.10
39931;DHT22;26635;-35.248;149.138;2023-07-31T08:47:02;9.20;85.50
39931;DHT22;26635;-35.248;149.138;2023-07-31T08:49:34;9.20;85.60
39931;DHT22;26635;-35.248;149.138;2023-07-31T08:52:05;9.20;85.30
39931;DHT22;26635;-35.248;149.138;2023-07-31T08:54:37;9.20;84.40
39931;DHT22;26635;-35.248;149.138;2023-07-31T08:57:10;9.10;83.90
39931;DHT22;26635;-35.248;149.138;2023-07-31T08:59:41;9.00;85.60
39931;DHT22;26635;-35.248;149.138;2023-07-31T09:02:15;9.00;86.10
39931;DHT22;26635;-35.248;149.138;2023-07-31T09:04:46;8.90;86.30
39931;DHT22;26635;-35.248;149.138;2023-07-31T09:07:17;8.90;86.50
39931;DHT22;26635;-35.248;149.138;2023-07-31T09:09:47;8.90;86.60
39931;DHT22;26635;-35.248;149.138;2023-07-31T09:12:18;8.80;86.60
39931;DHT22;26635;-35.248;149.138;2023-07-31T09:14:49;8.80;87.00
39931;DHT22;26635;-35.248;149.138;2023-07-31T09:17:39;8.80;86.90
39931;DHT22;26635;-35.248;149.138;2023-07-31T09:20:18;8.70;86.70
39931;DHT22;26635;-35.248;149.138;2023-07-31T09:22:49;8.70;86.80
39931;DHT22;26635;-35.248;149.138;2023-07-31T09:25:24;8.70;86.90
39931;DHT22;26635;-35.248;149.138;2023-07-31T09:28:02;8.70;87.20
39931;DHT22;26635;-35.248;149.138;2023-07-31T09:30:53;8.70;86.80
39931;DHT22;26635;-35.248;149.138;2023-07-31T09:33:25;8.70;87.30
39931;DHT22;26635;-35.248;149.138;2023-07-31T09:35:55;8.70;86.80
39931;DHT22;26635;-35.248;149.138;2023-07-31T09:38:28;8.60;86.60
39931;DHT22;26635;-35.248;149.138;2023-07-31T09:40:59;8.60;87.30
39931;DHT22;26635;-35.248;149.138;2023-07-31T09:43:29;8.60;88.00
39931;DHT22;26635;-35.248;149.138;2023-07-31T09:46:00;8.50;87.60
39931;DHT22;26635;-35.248;149.138;2023-07-31T09:48:30;8.50;87.80
39931;DHT22;26635;-35.248;149.138;2023-07-31T09:51:04;8.50;87.50
39931;DHT22;26635;-35.248;149.138;2023-07-31T09:53:35;8.60;87.50
39931;DHT22;26635;-35.248;149.138;2023-07-31T09:56:05;8.60;87.20
39931;DHT22;26635;-35.248;149.138;2023-07-31T09:58:36;8.60;87.00
39931;DHT22;26635;-35.248;149.138;2023-07-31T10:01:06;8.70;87.00
39931;DHT22;26635;-35.248;149.138;2023-07-31T10:03:38;8.70;86.60
39931;DHT22;26635;-35.248;149.138;2023-07-31T10:06:10;8.70;86.10
39931;DHT22;26635;-35.248;149.138;2023-07-31T10:08:41;8.70;86.80
39931;DHT22;26635;-35.248;149.138;2023-07-31T10:11:14;8.70;86.20
39931;DHT22;26635;-35.248;149.138;2023-07-31T10:13:44;8.70;86.70
39931;DHT22;26635;-35.248;149.138;2023-07-31T10:16:16;8.70;86.50
39931;DHT22;26635;-35.248;149.138;2023-07-31T10:18:48;8.70;86.70
39931;DHT22;26635;-35.248;149.138;2023-07-31T10:21:19;8.60;86.60
39931;DHT22;26635;-35.248;149.138;2023-07-31T10:23:51;8.60;85.60
39931;DHT22;26635;-35.248;149.138;2023-07-31T10:26:23;8.50;86.80
39931;DHT22;26635;-35.248;149.138;2023-07-31T10:28:56;8.50;86.60
39931;DHT22;26635;-35.248;149.138;2023-07-31T10:31:31;8.50;87.00
39931;DHT22;26635;-35.248;149.138;2023-07-31T10:34:02;8.50;87.00
39931;DHT22;26635;-35.248;149.138;2023-07-31T10:36:34;8.50;87.20
39931;DHT22;26635;-35.248;149.138;2023-07-31T10:39:05;8.40;87.60
39931;DHT22;26635;-35.248;149.138;2023-07-31T10:41:55;8.50;87.60
39931;DHT22;26635;-35.248;149.138;2023-07-31T10:44:26;8.50;87.50
39931;DHT22;26635;-35.248;149.138;2023-07-31T10:46:57;8.50;87.50
39931;DHT22;26635;-35.248;149.138;2023-07-31T10:49:29;8.40;87.20
39931;DHT22;26635;-35.248;149.138;2023-07-31T10:52:04;8.40;87.00
39931;DHT22;26635;-35.248;149.138;2023-07-31T10:54:34;8.40;86.60
39931;DHT22;26635;-35.248;149.138;2023-07-31T10:57:22;8.40;88.20
39931;DHT22;26635;-35.248;149.138;2023-07-31T11:03:03;8.40;88.20
39931;DHT22;26635;-35.248;149.138;2023-07-31T11:06:01;8.40;88.00
39931;DHT22;26635;-35.248;149.138;2023-07-31T11:08:40;8.40;89.50
39931;DHT22;26635;-35.248;149.138;2023-07-31T11:11:15;8.50;88.70
39931;DHT22;26635;-35.248;149.138;2023-07-31T11:13:54;8.50;88.10
39931;DHT22;26635;-35.248;149.138;2023-07-31T11:16:26;8.50;89.20
39931;DHT22;26635;-35.248;149.138;2023-07-31T11:18:56;8.50;89.10
39931;DHT22;26635;-35.248;149.138;2023-07-31T11:21:28;8.60;88.30
39931;DHT22;26635;-35.248;149.138;2023-07-31T11:23:59;8.60;88.10
39931;DHT22;26635;-35.248;149.138;2023-07-31T11:26:29;8.50;87.60
39931;DHT22;26635;-35.248;149.138;2023-07-31T11:29:00;8.50;88.20
39931;DHT22;26635;-35.248;149.138;2023-07-31T11:31:31;8.50;87.90
39931;DHT22;26635;-35.248;149.138;2023-07-31T11:34:07;8.50;87.80
39931;DHT22;26635;-35.248;149.138;2023-07-31T11:36:37;8.50;87.70
39931;DHT22;26635;-35.248;149.138;2023-07-31T11:39:10;8.40;87.50
39931;DHT22;26635;-35.248;149.138;2023-07-31T11:41:43;8.40;88.20
39931;DHT22;26635;-35.248;149.138;2023-07-31T11:44:14;8.40;88.20
39931;DHT22;26635;-35.248;149.138;2023-07-31T11:46:57;8.40;88.50
39931;DHT22;26635;-35.248;149.138;2023-07-31T11:49:30;8.40;88.80
39931;DHT22;26635;-35.248;149.138;2023-07-31T11:52:04;8.40;88.90
39931;DHT22;26635;-35.248;149.138;2023-07-31T11:54:36;8.40;89.60
39931;DHT22;26635;-35.248;149.138;2023-07-31T11:57:07;8.40;89.80
39931;DHT22;26635;-35.248;149.138;2023-07-31T11:59:38;8.40;89.80
39931;DHT22;26635;-35.248;149.138;2023-07-31T12:02:09;8.40;89.90
39931;DHT22;26635;-35.248;149.138;2023-07-31T12:04:40;8.40;90.20
39931;DHT22;26635;-35.248;149.138;2023-07-31T12:07:11;8.40;90.20
39931;DHT22;26635;-35.248;149.138;2023-07-31T12:09:55;8.40;90.20
39931;DHT22;26635;-35.248;149.138;2023-07-31T12:12:26;8.40;90.40
39931;DHT22;26635;-35.248;149.138;2023-07-31T12:14:57;8.40;90.10
39931;DHT22;26635;-35.248;149.138;2023-07-31T12:17:28;8.40;90.30
39931;DHT22;26635;-35.248;149.138;2023-07-31T12:19:58;8.40;90.80
39931;DHT22;26635;-35.248;149.138;2023-07-31T12:22:29;8.40;90.80
39931;DHT22;26635;-35.248;149.138;2023-07-31T12:24:59;8.40;90.60
39931;DHT22;26635;-35.248;149.138;2023-07-31T12:27:33;8.30;90.50
39931;DHT22;26635;-35.248;149.138;2023-07-31T12:30:04;8.40;90.80
39931;DHT22;26635;-35.248;149.138;2023-07-31T12:32:35;8.40;90.80
39931;DHT22;26635;-35.248;149.138;2023-07-31T12:35:08;8.40;90.80
39931;DHT22;26635;-35.248;149.138;2023-07-31T12:37:39;8.40;90.60
39931;DHT22;26635;-35.248;149.138;2023-07-31T12:40:10;8.40;90.80
39931;DHT22;26635;-35.248;149.138;2023-07-31T12:42:41;8.40;91.10
39931;DHT22;26635;-35.248;149.138;2023-07-31T12:45:12;8.50;91.00
39931;DHT22;26635;-35.248;149.138;2023-07-31T12:47:42;8.50;91.30
39931;DHT22;26635;-35.248;149.138;2023-07-31T12:50:12;8.50;91.10
39931;DHT22;26635;-35.248;149.138;2023-07-31T12:52:43;8.60;91.00
39931;DHT22;26635;-35.248;149.138;2023-07-31T12:55:13;8.60;91.10
39931;DHT22;26635;-35.248;149.138;2023-07-31T12:57:44;8.60;91.10
39931;DHT22;26635;-35.248;149.138;2023-07-31T13:00:15;8.60;91.30
39931;DHT22;26635;-35.248;149.138;2023-07-31T13:02:45;8.70;91.10
39931;DHT22;26635;-35.248;149.138;2023-07-31T13:05:19;8.70;91.30
39931;DHT22;26635;-35.248;149.138;2023-07-31T13:07:52;8.70;91.10
39931;DHT22;26635;-35.248;149.138;2023-07-31T13:10:23;8.70;91.20
39931;DHT22;26635;-35.248;149.138;2023-07-31T13:12:54;8.80;91.30
39931;DHT22;26635;-35.248;149.138;2023-07-31T13:15:24;8.80;91.50
39931;DHT22;26635;-35.248;149.138;2023-07-31T13:17:55;8.90;91.30
39931;DHT22;26635;-35.248;149.138;2023-07-31T13:20:25;8.90;91.00
39931;DHT22;26635;-35.248;149.138;2023-07-31T13:22:55;9.00;90.90
39931;DHT22;26635;-35.248;149.138;2023-07-31T13:25:26;8.90;90.90
39931;DHT22;26635;-35.248;149.138;2023-07-31T13:27:57;8.90;90.90
39931;DHT22;26635;-35.248;149.138;2023-07-31T13:30:30;9.00;90.70
39931;DHT22;26635;-35.248;149.138;2023-07-31T13:33:01;8.90;90.80
39931;DHT22;26635;-35.248;149.138;2023-07-31T13:35:31;8.90;90.60
39931;DHT22;26635;-35.248;149.138;2023-07-31T13:38:02;8.90;90.60
39931;DHT22;26635;-35.248;149.138;2023-07-31T13:40:32;8.90;90.60
39931;DHT22;26635;-35.248;149.138;2023-07-31T13:43:03;8.90;90.60
39931;DHT22;26635;-35.248;149.138;2023-07-31T13:45:33;8.90;90.40
39931;DHT22;26635;-35.248;149.138;2023-07-31T13:48:05;8.90;90.40
39931;DHT22;26635;-35.248;149.138;2023-07-31T13:50:36;8.80;90.50
39931;DHT22;26635;-35.248;149.138;2023-07-31T13:53:06;8.80;90.50
39931;DHT22;26635;-35.248;149.138;2023-07-31T13:55:36;8.80;90.40
39931;DHT22;26635;-35.248;149.138;2023-07-31T13:58:07;8.90;90.10
39931;DHT22;26635;-35.248;149.138;2023-07-31T14:00:37;8.90;90.00
39931;DHT22;26635;-35.248;149.138;2023-07-31T14:03:08;8.90;90.10
39931;DHT22;26635;-35.248;149.138;2023-07-31T14:05:39;8.90;90.30
39931;DHT22;26635;-35.248;149.138;2023-07-31T14:08:10;8.90;90.10
39931;DHT22;26635;-35.248;149.138;2023-07-31T14:10:41;9.00;90.00
39931;DHT22;26635;-35.248;149.138;2023-07-31T14:13:11;9.00;90.10
39931;DHT22;26635;-35.248;149.138;2023-07-31T14:15:44;9.00;90.10
39931;DHT22;26635;-35.248;149.138;2023-07-31T14:18:15;9.00;90.20
39931;DHT22;26635;-35.248;149.138;2023-07-31T14:20:46;8.90;90.50
39931;DHT22;26635;-35.248;149.138;2023-07-31T14:23:16;8.90;90.30
39931;DHT22;26635;-35.248;149.138;2023-07-31T14:25:47;8.90;90.50
39931;DHT22;26635;-35.248;149.138;2023-07-31T14:28:17;8.80;90.10
39931;DHT22;26635;-35.248;149.138;2023-07-31T14:30:48;8.80;90.20
39931;DHT22;26635;-35.248;149.138;2023-07-31T14:33:18;8.80;90.40
39931;DHT22;26635;-35.248;149.138;2023-07-31T14:35:49;8.80;90.40
39931;DHT22;26635;-35.248;149.138;2023-07-31T14:38:22;8.80;90.50
39931;DHT22;26635;-35.248;149.138;2023-07-31T14:40:55;8.70;90.50
39931;DHT22;26635;-35.248;149.138;2023-07-31T14:43:26;8.80;90.50
39931;DHT22;26635;-35.248;149.138;2023-07-31T14:45:59;8.70;90.60
39931;DHT22;26635;-35.248;149.138;2023-07-31T14:48:29;8.70;90.30
39931;DHT22;26635;-35.248;149.138;2023-07-31T14:51:00;8.70;90.40
39931;DHT22;26635;-35.248;149.138;2023-07-31T14:53:32;8.70;90.40
39931;DHT22;26635;-35.248;149.138;2023-07-31T14:56:03;8.70;90.50
39931;DHT22;26635;-35.248;149.138;2023-07-31T14:58:33;8.60;90.50
39931;DHT22;26635;-35.248;149.138;2023-07-31T15:01:04;8.50;90.60
39931;DHT22;26635;-35.248;149.138;2023-07-31T15:03:34;8.50;90.50
39931;DHT22;26635;-35.248;149.138;2023-07-31T15:06:05;8.50;90.90
39931;DHT22;26635;-35.248;149.138;2023-07-31T15:08:37;8.50;90.80
39931;DHT22;26635;-35.248;149.138;2023-07-31T15:11:07;8.40;90.80
39931;DHT22;26635;-35.248;149.138;2023-07-31T15:13:40;8.50;90.90
39931;DHT22;26635;-35.248;149.138;2023-07-31T15:16:11;8.50;90.80
39931;DHT22;26635;-35.248;149.138;2023-07-31T15:18:42;8.50;90.40
39931;DHT22;26635;-35.248;149.138;2023-07-31T15:21:12;8.60;90.30
39931;DHT22;26635;-35.248;149.138;2023-07-31T15:23:43;8.60;90.10
39931;DHT22;26635;-35.248;149.138;2023-07-31T15:26:13;8.70;90.00
39931;DHT22;26635;-35.248;149.138;2023-07-31T15:29:01;8.70;89.80
39931;DHT22;26635;-35.248;149.138;2023-07-31T15:31:32;8.70;89.70
39931;DHT22;26635;-35.248;149.138;2023-07-31T15:34:02;8.70;89.70